Share

Gdansk, Poland

IPOMORZE2 Elev 40 ft | 54.36 °N, 18.70 °E | Change Station

Current weather conditions updated 33 minutes ago

Clear
Clear
55.0 °F
Feels Like 55.0 °F
N
10.0
Wind Variable Wind from NNE
Gusts 15.0 mph
Sunrise 5:34 AM
Sunset 7:55 PM
Moon Waning Gibbous

Tomorrow is forecast to be nearly the same temperature as today. Showers tomorrow night.

Pressure 30.12 in
Visibility -9999.0 miles
Clouds
Dew Point 41 °F
Humidity 60%
Rainfall 0.00 in
Snow Depth Not available.
UV Not available.
Pollen Not available.
Air Quality Not available.
Flu Activity Not available.
METAR EPGD 191500Z 05010KT 020V080 CAVOK 17/09 Q1020

More Conditions Fewer Conditions

Pressure 30.12 in
Visibility -9999.0 miles
Clouds
Dew Point 41 °F
Humidity 60%
Rainfall 0.00 in
Snow Depth Not available.
UV Not available.
Pollen Not available.
Air Quality Not available.
Flu Activity Not available.
METAR EPGD 191500Z 05010KT 020V080 CAVOK 17/09 Q1020

More Conditions Fewer Conditions

10-Day Weather Forecast

Almanac

Astronomy

Apr. 19, 2014 Rise Set
Actual Time 5:34 AM CEST 7:55 PM CEST
Civil Twilight 4:55 AM CEST 8:34 PM CEST
Nautical Twilight 4:05 AM CEST 9:24 PM CEST
Astronomical Twilight 3:06 AM CEST 10:25 PM CEST
Moon No Moon Rise 8:13 AM CEST
Length of Visible Light 15h 39m
Length of Day
14h 20m
Tomorrow will be 4m 13s longer.
Waning Gibbous, 79% of the Moon is Illuminated
Today
Waning Gibbous
Apr 22
Last Quarter
Apr 29
New
May 6
First Quarter
May 14
Full

Today's Extremes

Country Highs Country Lows

Community

  • A Glorious Morning
    A Glorious Morning
  • Tender Rays Of Hope
    Tender Rays Of Hope
  • Bleeding Hearts
    Bleeding Hearts
  • Sunset Silhouettes
    Sunset Silhouettes
  • FL sunset Perico Isle
    FL sunset Perico Isle

WunderPhotos

Upload Photos

1,702,767 photos uploaded!

WunderBlogs® & News

Nearby

Snow Depth

Not available.

Coastal Water Temperatures

Place Temperature
No Stations Reporting

Earthquake Activity

City Distance Mag. Time & Date
No recent earthquake activity has been reported nearby.
Minimum magnitude displayed is 2.5.

Nearby Weather Stations

Station Location Temp. Dew Point Humidity Wind Precip. Elev Updated Type
Gdansk 55.0 °F 41 °F 60% NNE  at  10.0 mph 0.00 in / hr 40 ft 5:00 PM CEST Normal
Sopot 69.8 °F 50 °F 50% South  at  3.1 mph 0.00 in / hr 131 ft 5:09 PM CEST Normal
Sobieszewo, Gdansk 52.9 °F 49 °F 86% North  at  7.9 mph 0.00 in / hr 10 ft 5:33 PM CEST Rapid Fire
Tczew, Tczew 60.1 °F 50 °F 70% North  at  4.5 mph 0.00 in / hr 75 ft 5:30 PM CEST Normal

Show More Stations Show Fewer Stations

What do you think?

We're not finished. Please let us know what you like, what you don't like, and what you are still missing.